St. Louis Express — WDD3825 — position and weather

sailwx.info

Track history (hours):
 
Tides and Currents Weather Stations Pressure Air Temp Water Temp Dewpoint Dewpoint Depression Visibility Wind Speed Wind Dir Waves Ship Positions

St. Louis Express

Owner: Marine Transport Management, Inc C/O Crowley Ship Management, Jacksonville, FL. More information available from US FCC via Universal Licensing System.

Last reported at 2015-Jul-27 12:27 UTC. Time now 2015-Jul-28 15:23 UTC.
Position N 36°04' W 075°15'.

Type: Ship (hazmat cat D). MMSI: 367136680.

Date/timePositionNaut miles runAvg speedWind from/ knotsBaromVisibWave heightAir tempDewpointWater temp
2015-Jul-27 12:27N 36°04' W 075°15'1737.1
2015-Jul-27 12:00N 35°48' W 075°06'8320.8 090 / 101018.010.8 0.527.021.028.0
2015-Jul-27 08:00N 34°30' W 075°42'4417.7 110 / 201016.010.8 1.025.520.230.0
2015-Jul-27 05:29N 34°02' W 076°23'1530.1
2015-Jul-27 05:00N 33°48' W 076°30'5819.2 070 / 201016.010.8 1.026.021.530.0
2015-Jul-27 02:00N 33°12' W 077°24'4314.2 110 / 201016.0 27.023.430.0
2015-Jul-26 23:00N 32°48' W 078°06'2828.0 090 / 121015.510.8 1.028.023.730.0
2015-Jul-26 22:00N 32°36' W 078°36'12416.0 080 / 191015.010.8 1.529.023.230.0
2015-Jul-26 14:13N 32°04' W 080°59'5 8.1
2015-Jul-26 13:33N 32°05' W 081°05'4 3.8
2015-Jul-26 12:33N 32°07' W 081°08'0 0.0
2015-Jul-26 11:32N 32°07' W 081°08'0 0.0
2015-Jul-26 09:30N 32°07' W 081°08'0 0.0
2015-Jul-26 08:32N 32°07' W 081°08'0 0.0
2015-Jul-26 07:24N 32°07' W 081°08'0 0.0
2015-Jul-26 06:32N 32°07' W 081°08'0 0.0
2015-Jul-26 05:33N 32°07' W 081°08'0 0.0
2015-Jul-26 03:32N 32°07' W 081°08'0 0.0
2015-Jul-26 01:32N 32°07' W 081°08'0 0.0
2015-Jul-26 00:29N 32°07' W 081°08'0 0.0
2015-Jul-25 23:33N 32°07' W 081°08'0 0.0
2015-Jul-25 22:24N 32°07' W 081°08'0 0.0
2015-Jul-25 21:32N 32°07' W 081°08'0 0.0
2015-Jul-25 20:33N 32°07' W 081°08'0 0.0
2015-Jul-25 19:32N 32°07' W 081°08'0 0.0
2015-Jul-25 18:29N 32°07' W 081°08'0 0.0
2015-Jul-25 17:30N 32°07' W 081°08'0 0.0
2015-Jul-25 15:27N 32°07' W 081°08'0 0.0
2015-Jul-25 13:32N 32°07' W 081°08'0 0.0
2015-Jul-25 12:33N 32°07' W 081°08'3 3.0
2015-Jul-25 11:23N 32°05' W 081°05'35417.5
2015-Jul-24 15:10N 26°21' W 079°29'1321.9
2015-Jul-24 14:33N 26°07' W 079°28'2221.9
2015-Jul-24 13:33N 25°45' W 079°28'2320.1
2015-Jul-24 12:25N 25°28' W 079°44'52018.3
2015-Jul-23 08:00N 26°36' W 089°18'2914.7 190 / 131019.510.8 25.020.531.0
2015-Jul-23 06:00N 26°48' W 089°48'30418.3 190 / 131018.510.8 0.527.022.631.0
2015-Jul-22 13:25N 29°21' W 094°46'1112.6
2015-Jul-22 12:33N 29°30' W 094°52'1212.1
2015-Jul-22 11:33N 29°41' W 094°59'1 1.0
2015-Jul-22 10:33N 29°41' W 094°60'0 0.0
2015-Jul-22 09:30N 29°41' W 094°60'0 0.0
2015-Jul-22 08:33N 29°41' W 094°60'0 0.0
2015-Jul-22 07:30N 29°41' W 094°60'0 0.0
2015-Jul-22 06:33N 29°41' W 094°60'0 0.0
2015-Jul-22 05:33N 29°41' W 094°60'0 0.0
2015-Jul-22 04:33N 29°41' W 094°60'0 0.0
2015-Jul-22 03:33N 29°41' W 094°60'0 0.0
2015-Jul-22 02:33N 29°41' W 094°60'0 0.0
2015-Jul-22 01:33N 29°41' W 094°60'0 0.0
2015-Jul-22 00:33N 29°41' W 094°60'0 0.0
2015-Jul-21 23:33N 29°41' W 094°60'0 0.0
2015-Jul-21 22:33N 29°41' W 094°60'0 0.0
2015-Jul-21 21:33N 29°41' W 094°60'0 0.0
2015-Jul-21 20:33N 29°41' W 094°60'0 0.0
2015-Jul-21 19:33N 29°41' W 094°60'0 0.0
2015-Jul-21 18:33N 29°41' W 094°60'0 0.0
2015-Jul-21 17:33N 29°41' W 094°60'0 0.0
2015-Jul-21 16:33N 29°41' W 094°60'0 0.0
2015-Jul-21 15:33N 29°41' W 094°60'0 0.0
2015-Jul-21 14:33N 29°41' W 094°60'0 0.0
2015-Jul-21 13:33N 29°41' W 094°60'0 0.0
2015-Jul-21 12:30N 29°41' W 094°60'0 0.0
2015-Jul-21 11:33N 29°41' W 094°60'0 0.0
2015-Jul-21 10:33N 29°41' W 094°60'8 7.9
2015-Jul-21 09:33N 29°34' W 094°55'1212.1
2015-Jul-21 08:33N 29°23' W 094°49'82317.5
2015-Jul-19 09:32N 25°13' W 080°07'1717.0
2015-Jul-19 08:33N 25°29' W 080°02'1716.8
2015-Jul-19 07:33N 25°46' W 080°02'1616.3
2015-Jul-19 06:33N 26°02' W 080°03'4 4.2
2015-Jul-19 05:33N 26°04' W 080°07'0 0.0
2015-Jul-19 04:33N 26°04' W 080°07'0 0.0
2015-Jul-19 00:33N 26°04' W 080°07'0 0.0
2015-Jul-18 23:33N 26°04' W 080°07'0 0.0
2015-Jul-18 22:33N 26°04' W 080°07'0 0.0
2015-Jul-18 21:33N 26°04' W 080°07'0 0.0
2015-Jul-18 20:33N 26°04' W 080°07'3 3.5
2015-Jul-18 19:34N 26°06' W 080°04'3 3.4
2015-Jul-18 18:33N 26°09' W 080°01'3 2.9
2015-Jul-18 17:33N 26°10' W 079°59'3 3.3
2015-Jul-18 16:34N 26°07' W 079°59'3 3.2
2015-Jul-18 15:33N 26°04' W 079°59'3 3.1
2015-Jul-18 14:33N 26°01' W 079°58'2 1.6
2015-Jul-18 13:34N 26°02' W 079°59'1414.3
2015-Jul-18 12:33N 26°17' W 079°59'1514.9
2015-Jul-18 11:33N 26°32' W 079°58'1514.8
2015-Jul-18 10:33N 26°46' W 079°57'1414.3
2015-Jul-18 09:33N 27°01' W 079°57'  
Track history (hours):
 
Tides and Currents Weather Stations Pressure Air Temp Water Temp Dewpoint Dewpoint Depression Visibility Wind Speed Wind Dir Waves Ship Positions

St. Louis Express

Owner: Marine Transport Management, Inc C/O Crowley Ship Management, Jacksonville, FL. More information available from US FCC via Universal Licensing System.

Last reported at 2015-Jul-27 12:27 UTC. Time now 2015-Jul-28 15:23 UTC.
Position N 36°04' W 075°15'.

Type: Ship (hazmat cat D). MMSI: 367136680.

Date/timePositionNaut miles runAvg speedWind from/ knotsBaromVisibWave heightAir tempDewpointWater temp
2015-Jul-27 12:27N 36°04' W 075°15'1737.1
2015-Jul-27 12:00N 35°48' W 075°06'8320.8 090 / 101018.010.8 0.527.021.028.0
2015-Jul-27 08:00N 34°30' W 075°42'4417.7 110 / 201016.010.8 1.025.520.230.0
2015-Jul-27 05:29N 34°02' W 076°23'1530.1
2015-Jul-27 05:00N 33°48' W 076°30'5819.2 070 / 201016.010.8 1.026.021.530.0
2015-Jul-27 02:00N 33°12' W 077°24'4314.2 110 / 201016.0 27.023.430.0
2015-Jul-26 23:00N 32°48' W 078°06'2828.0 090 / 121015.510.8 1.028.023.730.0
2015-Jul-26 22:00N 32°36' W 078°36'12416.0 080 / 191015.010.8 1.529.023.230.0
2015-Jul-26 14:13N 32°04' W 080°59'5 8.1
2015-Jul-26 13:33N 32°05' W 081°05'4 3.8
2015-Jul-26 12:33N 32°07' W 081°08'0 0.0
2015-Jul-26 11:32N 32°07' W 081°08'0 0.0
2015-Jul-26 09:30N 32°07' W 081°08'0 0.0
2015-Jul-26 08:32N 32°07' W 081°08'0 0.0
2015-Jul-26 07:24N 32°07' W 081°08'0 0.0
2015-Jul-26 06:32N 32°07' W 081°08'0 0.0
2015-Jul-26 05:33N 32°07' W 081°08'0 0.0
2015-Jul-26 03:32N 32°07' W 081°08'0 0.0
2015-Jul-26 01:32N 32°07' W 081°08'0 0.0
2015-Jul-26 00:29N 32°07' W 081°08'0 0.0
2015-Jul-25 23:33N 32°07' W 081°08'0 0.0
2015-Jul-25 22:24N 32°07' W 081°08'0 0.0
2015-Jul-25 21:32N 32°07' W 081°08'0 0.0
2015-Jul-25 20:33N 32°07' W 081°08'0 0.0
2015-Jul-25 19:32N 32°07' W 081°08'0 0.0
2015-Jul-25 18:29N 32°07' W 081°08'0 0.0
2015-Jul-25 17:30N 32°07' W 081°08'0 0.0
2015-Jul-25 15:27N 32°07' W 081°08'0 0.0
2015-Jul-25 13:32N 32°07' W 081°08'0 0.0
2015-Jul-25 12:33N 32°07' W 081°08'3 3.0
2015-Jul-25 11:23N 32°05' W 081°05'35417.5
2015-Jul-24 15:10N 26°21' W 079°29'1321.9
2015-Jul-24 14:33N 26°07' W 079°28'2221.9
2015-Jul-24 13:33N 25°45' W 079°28'2320.1
2015-Jul-24 12:25N 25°28' W 079°44'52018.3
2015-Jul-23 08:00N 26°36' W 089°18'2914.7 190 / 131019.510.8 25.020.531.0
2015-Jul-23 06:00N 26°48' W 089°48'30418.3 190 / 131018.510.8 0.527.022.631.0
2015-Jul-22 13:25N 29°21' W 094°46'1112.6
2015-Jul-22 12:33N 29°30' W 094°52'1212.1
2015-Jul-22 11:33N 29°41' W 094°59'1 1.0
2015-Jul-22 10:33N 29°41' W 094°60'0 0.0
2015-Jul-22 09:30N 29°41' W 094°60'0 0.0
2015-Jul-22 08:33N 29°41' W 094°60'0 0.0
2015-Jul-22 07:30N 29°41' W 094°60'0 0.0
2015-Jul-22 06:33N 29°41' W 094°60'0 0.0
2015-Jul-22 05:33N 29°41' W 094°60'0 0.0
2015-Jul-22 04:33N 29°41' W 094°60'0 0.0
2015-Jul-22 03:33N 29°41' W 094°60'0 0.0
2015-Jul-22 02:33N 29°41' W 094°60'0 0.0
2015-Jul-22 01:33N 29°41' W 094°60'0 0.0
2015-Jul-22 00:33N 29°41' W 094°60'0 0.0
2015-Jul-21 23:33N 29°41' W 094°60'0 0.0
2015-Jul-21 22:33N 29°41' W 094°60'0 0.0
2015-Jul-21 21:33N 29°41' W 094°60'0 0.0
2015-Jul-21 20:33N 29°41' W 094°60'0 0.0
2015-Jul-21 19:33N 29°41' W 094°60'0 0.0
2015-Jul-21 18:33N 29°41' W 094°60'0 0.0
2015-Jul-21 17:33N 29°41' W 094°60'0 0.0
2015-Jul-21 16:33N 29°41' W 094°60'0 0.0
2015-Jul-21 15:33N 29°41' W 094°60'0 0.0
2015-Jul-21 14:33N 29°41' W 094°60'0 0.0
2015-Jul-21 13:33N 29°41' W 094°60'0 0.0
2015-Jul-21 12:30N 29°41' W 094°60'0 0.0
2015-Jul-21 11:33N 29°41' W 094°60'0 0.0
2015-Jul-21 10:33N 29°41' W 094°60'8 7.9
2015-Jul-21 09:33N 29°34' W 094°55'1212.1
2015-Jul-21 08:33N 29°23' W 094°49'82317.5
2015-Jul-19 09:32N 25°13' W 080°07'1717.0
2015-Jul-19 08:33N 25°29' W 080°02'1716.8
2015-Jul-19 07:33N 25°46' W 080°02'1616.3
2015-Jul-19 06:33N 26°02' W 080°03'4 4.2
2015-Jul-19 05:33N 26°04' W 080°07'0 0.0
2015-Jul-19 04:33N 26°04' W 080°07'0 0.0
2015-Jul-19 00:33N 26°04' W 080°07'0 0.0
2015-Jul-18 23:33N 26°04' W 080°07'0 0.0
2015-Jul-18 22:33N 26°04' W 080°07'0 0.0
2015-Jul-18 21:33N 26°04' W 080°07'0 0.0
2015-Jul-18 20:33N 26°04' W 080°07'3 3.5
2015-Jul-18 19:34N 26°06' W 080°04'3 3.4
2015-Jul-18 18:33N 26°09' W 080°01'3 2.9
2015-Jul-18 17:33N 26°10' W 079°59'3 3.3
2015-Jul-18 16:34N 26°07' W 079°59'3 3.2
2015-Jul-18 15:33N 26°04' W 079°59'3 3.1
2015-Jul-18 14:33N 26°01' W 079°58'2 1.6
2015-Jul-18 13:34N 26°02' W 079°59'1414.3
2015-Jul-18 12:33N 26°17' W 079°59'1514.9
2015-Jul-18 11:33N 26°32' W 079°58'1514.8
2015-Jul-18 10:33N 26°46' W 079°57'1414.3
2015-Jul-18 09:33N 27°01' W 079°57'  

Dump ship's entire track history